Time;durP1;ratioP1;P1;durP2;ratioP2;P2;SDS_P1;SDS_P2;PMS_P1;PMS_P2;Temp;Humidity;BMP_temperature;BMP_pressure;BME280_temperature;BME280_humidity;BME280_pressure;Samples;Min_cycle;Max_cycle;Signal;HPM_P1;HPM_P2
2022/01/14 00:01:10;;;;;;;141.45;27.20;;;5.50;99.90;;;;;;5014336;28;20033;-84
2022/01/14 00:03:35;;;;;;;139.43;25.55;;;5.40;99.90;;;;;;5027798;28;20065;-85
2022/01/14 00:06:01;;;;;;;132.18;27.52;;;5.40;99.90;;;;;;5026495;28;20053;-84
2022/01/14 00:08:29;;;;;;;130.88;25.00;;;5.40;99.90;;;;;;5007501;28;20045;-84
2022/01/14 00:10:57;;;;;;;125.82;25.23;;;5.40;99.90;;;;;;5028451;28;20128;-84
2022/01/14 00:13:47;;;;;;;128.13;24.33;;;5.30;99.90;;;;;;5017183;28;20050;-84
2022/01/14 00:16:19;;;;;;;117.63;23.67;;;5.40;99.90;;;;;;5011612;28;20037;-84
2022/01/14 00:18:51;;;;;;;145.50;26.02;;;5.30;99.90;;;;;;5011340;28;20359;-84
2022/01/14 00:21:29;;;;;;;152.93;26.92;;;5.30;99.90;;;;;;5028774;28;20060;-84
2022/01/14 00:24:07;;;;;;;177.43;26.90;;;5.30;99.90;;;;;;5000785;28;20179;-84
2022/01/14 00:32:02;;;;;;;196.98;29.08;;;5.30;99.90;;;;;;5042137;28;20052;-84
2022/01/14 00:34:48;;;;;;;159.98;27.08;;;5.30;99.90;;;;;;5014105;28;20136;-84
2022/01/14 00:37:20;;;;;;;190.45;28.95;;;5.30;99.90;;;;;;5024787;28;20195;-84
2022/01/14 00:39:46;;;;;;;142.55;27.38;;;5.30;99.90;;;;;;5028710;28;20034;-84
2022/01/14 00:42:18;;;;;;;184.90;29.00;;;5.20;99.90;;;;;;5027616;28;20482;-84
2022/01/14 00:44:44;;;;;;;169.00;29.60;;;5.30;99.90;;;;;;5012033;28;20111;-84
2022/01/14 00:47:09;;;;;;;158.35;27.70;;;5.20;99.90;;;;;;5012040;28;20421;-84
2022/01/14 00:49:35;;;;;;;148.60;27.05;;;5.20;99.90;;;;;;5012268;28;20100;-84
2022/01/14 00:52:04;;;;;;;148.50;28.48;;;5.30;99.90;;;;;;5033851;28;20033;-84
2022/01/14 00:54:29;;;;;;;146.02;28.67;;;5.30;99.90;;;;;;5027713;28;20092;-84
2022/01/14 00:57:14;;;;;;;147.23;27.35;;;5.30;99.90;;;;;;5011299;28;20045;-84
2022/01/14 00:59:48;;;;;;;139.63;26.10;;;5.30;99.90;;;;;;5027480;28;20033;-84
2022/01/14 01:02:14;;;;;;;136.68;26.33;;;5.30;99.90;;;;;;5032235;28;20495;-84
2022/01/14 01:04:40;;;;;;;153.95;29.88;;;5.30;99.90;;;;;;5034589;28;20045;-83
2022/01/14 01:07:09;;;;;;;131.50;26.33;;;5.30;99.90;;;;;;5033081;28;20072;-82
2022/01/14 01:09:37;;;;;;;151.40;28.88;;;5.30;99.90;;;;;;5035595;28;20469;-82
2022/01/14 01:12:12;;;;;;;141.48;28.23;;;5.30;99.90;;;;;;5015689;28;20036;-83
2022/01/14 01:14:48;;;;;;;128.95;25.20;;;5.30;99.90;;;;;;5037509;28;20084;-84
2022/01/14 01:17:15;;;;;;;122.57;25.58;;;5.30;99.90;;;;;;5017050;28;20069;-85
2022/01/14 01:19:41;;;;;;;131.52;26.58;;;5.30;99.90;;;;;;5032381;28;20415;-84
2022/01/14 01:22:07;;;;;;;117.90;24.27;;;5.30;99.90;;;;;;5032537;28;20116;-85
2022/01/14 01:24:33;;;;;;;128.70;25.23;;;5.30;99.90;;;;;;5036845;28;20052;-84
2022/01/14 01:27:03;;;;;;;117.82;23.88;;;5.30;99.90;;;;;;5033438;28;20033;-84
2022/01/14 01:29:44;;;;;;;125.15;23.33;;;5.30;99.90;;;;;;5012037;28;20041;-84
2022/01/14 01:32:10;;;;;;;93.80;20.95;;;5.40;99.90;;;;;;5017790;28;20147;-84
2022/01/14 01:34:36;;;;;;;84.97;20.40;;;5.30;99.90;;;;;;5031930;28;20041;-84
2022/01/14 01:37:03;;;;;;;86.68;20.15;;;5.30;99.90;;;;;;5031672;28;20520;-84
2022/01/14 01:39:36;;;;;;;76.82;17.60;;;5.40;99.90;;;;;;5034798;28;20041;-84
2022/01/14 01:42:06;;;;;;;73.45;19.50;;;5.40;99.90;;;;;;5033372;28;20037;-84
2022/01/14 01:44:33;;;;;;;86.07;19.00;;;5.40;99.90;;;;;;5029663;28;20073;-83
2022/01/14 01:46:59;;;;;;;75.75;17.85;;;5.40;99.90;;;;;;5035728;28;20043;-85
2022/01/14 01:49:31;;;;;;;83.68;18.83;;;5.40;99.90;;;;;;5014406;28;20136;-84
2022/01/14 01:51:57;;;;;;;88.65;19.80;;;5.40;99.90;;;;;;5027466;28;20045;-84
2022/01/14 01:54:24;;;;;;;80.07;17.30;;;5.40;99.90;;;;;;5041851;28;20453;-84
2022/01/14 01:56:51;;;;;;;97.63;19.17;;;5.40;99.90;;;;;;5018940;28;20068;-84
2022/01/14 01:59:21;;;;;;;88.80;19.25;;;5.30;99.90;;;;;;5028962;28;20034;-84
2022/01/14 02:01:47;;;;;;;101.07;21.55;;;5.40;99.90;;;;;;5023654;28;20038;-84
2022/01/14 02:04:13;;;;;;;109.20;20.40;;;5.40;99.90;;;;;;5029028;28;20482;-85
2022/01/14 02:06:40;;;;;;;101.57;19.23;;;5.40;99.90;;;;;;5033064;28;20372;-84
2022/01/14 02:09:07;;;;;;;105.07;19.30;;;5.30;99.90;;;;;;5026951;28;20112;-84
2022/01/14 02:11:33;;;;;;;93.05;18.63;;;5.40;99.90;;;;;;5032305;28;20045;-84
2022/01/14 02:14:04;;;;;;;95.80;19.70;;;5.30;99.90;;;;;;5028634;28;20048;-84
2022/01/14 02:16:58;;;;;;;100.78;20.40;;;5.40;99.90;;;;;;5028766;28;20059;-84
2022/01/14 02:19:31;;;;;;;103.63;19.65;;;5.40;99.90;;;;;;5043919;28;20140;-84
2022/01/14 02:22:13;;;;;;;98.70;19.95;;;5.40;99.90;;;;;;5028352;28;20064;-84
2022/01/14 02:27:08;;;;;;;94.25;20.27;;;5.40;99.90;;;;;;5030806;28;20075;-84
2022/01/14 02:29:34;;;;;;;106.07;22.27;;;5.30;99.90;;;;;;5029670;28;20042;-84
2022/01/14 02:32:01;;;;;;;90.70;21.05;;;5.30;99.90;;;;;;5031273;28;20136;-83
2022/01/14 02:34:27;;;;;;;90.38;19.48;;;5.40;99.90;;;;;;5013469;28;20045;-85
2022/01/14 02:36:53;;;;;;;101.15;20.20;;;5.40;99.90;;;;;;5040054;28;20059;-84
2022/01/14 02:39:20;;;;;;;105.95;23.45;;;5.40;99.90;;;;;;5013596;28;20037;-84
2022/01/14 02:41:49;;;;;;;114.63;23.50;;;5.30;99.90;;;;;;5033973;28;20387;-84
2022/01/14 02:44:19;;;;;;;108.00;22.38;;;5.40;99.90;;;;;;5032784;28;20403;-84
2022/01/14 02:46:54;;;;;;;108.82;21.65;;;5.30;99.90;;;;;;5033813;28;20521;-84
2022/01/14 02:49:21;;;;;;;129.93;21.98;;;5.30;99.90;;;;;;5030245;28;20479;-84
2022/01/14 02:51:47;;;;;;;120.47;23.20;;;5.40;99.90;;;;;;5028608;28;20120;-84
2022/01/14 02:54:16;;;;;;;131.32;23.02;;;5.30;99.90;;;;;;5029345;28;20124;-84
2022/01/14 02:56:43;;;;;;;118.85;23.55;;;5.30;99.90;;;;;;5030042;28;20179;-84
2022/01/14 02:59:14;;;;;;;118.15;22.33;;;5.30;99.90;;;;;;5017069;28;20044;-84
2022/01/14 03:01:41;;;;;;;106.60;21.45;;;5.30;99.90;;;;;;5031522;28;20053;-84
2022/01/14 03:04:08;;;;;;;118.72;20.75;;;5.30;99.90;;;;;;5014292;28;20044;-84
2022/01/14 03:06:34;;;;;;;123.80;22.15;;;5.20;99.90;;;;;;5028306;28;20038;-84
2022/01/14 03:09:00;;;;;;;164.30;22.58;;;5.20;99.90;;;;;;5028541;28;20088;-84
2022/01/14 03:11:35;;;;;;;106.20;18.45;;;5.20;99.90;;;;;;5029134;28;20038;-84
2022/01/14 03:14:02;;;;;;;126.03;20.13;;;5.20;99.90;;;;;;5027439;28;20119;-84
2022/01/14 03:16:29;;;;;;;92.72;19.15;;;5.20;99.90;;;;;;5013136;28;20050;-84
2022/01/14 03:19:04;;;;;;;102.88;19.23;;;5.20;99.90;;;;;;5014709;28;20048;-84
2022/01/14 03:21:36;;;;;;;187.20;25.35;;;5.20;99.90;;;;;;5027072;28;20030;-84
2022/01/14 03:24:14;;;;;;;176.90;24.13;;;5.20;99.90;;;;;;5037814;28;20568;-84
2022/01/14 03:26:40;;;;;;;184.32;24.38;;;5.10;99.90;;;;;;5030512;28;20047;-84
2022/01/14 03:29:06;;;;;;;156.20;23.63;;;5.10;99.90;;;;;;5014429;28;20045;-84
2022/01/14 03:31:32;;;;;;;150.90;24.58;;;5.10;99.90;;;;;;5025605;28;20468;-84
2022/01/14 03:33:57;;;;;;;150.18;24.17;;;5.10;99.90;;;;;;5013970;28;20095;-84
2022/01/14 03:36:23;;;;;;;176.13;27.48;;;5.10;99.90;;;;;;5009646;28;20479;-84
2022/01/14 03:38:49;;;;;;;183.82;26.40;;;5.10;99.90;;;;;;5024023;28;20040;-84
2022/01/14 03:41:14;;;;;;;191.10;28.30;;;5.10;99.90;;;;;;5012023;28;20089;-84
2022/01/14 03:43:41;;;;;;;209.13;27.98;;;5.10;99.90;;;;;;5029513;28;20383;-84
2022/01/14 03:46:07;;;;;;;226.82;30.42;;;5.10;99.90;;;;;;5008854;28;20043;-84
2022/01/14 03:48:33;;;;;;;247.55;30.52;;;5.10;99.90;;;;;;5029119;28;20044;-84
2022/01/14 03:50:59;;;;;;;165.90;26.90;;;5.10;99.90;;;;;;5030274;28;20045;-84
2022/01/14 03:53:24;;;;;;;249.15;28.77;;;5.10;99.90;;;;;;5028343;28;20088;-84
2022/01/14 03:55:50;;;;;;;211.75;28.63;;;5.10;99.90;;;;;;5024784;28;20046;-84
2022/01/14 03:58:16;;;;;;;178.82;25.67;;;5.10;99.90;;;;;;5012073;28;20053;-84
2022/01/14 04:00:41;;;;;;;210.18;31.08;;;5.10;99.90;;;;;;5028833;28;20053;-82
2022/01/14 04:03:07;;;;;;;199.32;27.80;;;5.10;99.90;;;;;;5011722;28;20117;-85
2022/01/14 04:05:34;;;;;;;201.40;26.83;;;5.10;99.90;;;;;;5028523;28;20041;-83
2022/01/14 04:08:00;;;;;;;216.95;28.42;;;5.10;99.90;;;;;;5029571;28;20087;-83
2022/01/14 04:10:26;;;;;;;168.43;25.13;;;5.10;99.90;;;;;;5027728;28;20033;-82
2022/01/14 04:15:37;;;;;;;154.65;25.90;;;5.10;99.90;;;;;;5033111;28;20499;-83
2022/01/14 04:18:15;;;;;;;160.02;24.38;;;5.00;99.90;;;;;;5034302;28;20036;-83
2022/01/14 04:20:43;;;;;;;113.47;20.65;;;5.10;99.90;;;;;;5029004;28;20048;-82
2022/01/14 04:23:13;;;;;;;106.47;19.30;;;5.10;99.90;;;;;;5039035;28;20488;-82
2022/01/14 04:25:40;;;;;;;105.35;20.55;;;5.10;99.90;;;;;;5044762;28;20418;-82
2022/01/14 04:28:08;;;;;;;143.57;22.48;;;5.10;99.90;;;;;;5011409;28;20411;-83
2022/01/14 04:30:34;;;;;;;99.90;19.30;;;5.00;99.90;;;;;;5027343;28;20045;-83
2022/01/14 04:33:00;;;;;;;149.95;21.50;;;5.10;99.90;;;;;;5028626;28;20037;-82
2022/01/14 04:35:27;;;;;;;144.68;22.83;;;5.10;99.90;;;;;;5030304;28;20060;-84
2022/01/14 04:37:53;;;;;;;119.93;20.80;;;5.10;99.90;;;;;;5028294;28;20037;-83
2022/01/14 04:40:19;;;;;;;134.05;21.92;;;5.10;99.90;;;;;;5049688;28;20040;-82
2022/01/14 04:42:46;;;;;;;118.30;19.88;;;5.10;99.90;;;;;;5016750;28;20026;-82
2022/01/14 04:45:26;;;;;;;126.47;21.25;;;5.10;99.90;;;;;;5033738;28;20056;-82
2022/01/14 04:47:52;;;;;;;125.45;20.50;;;5.00;99.90;;;;;;5032510;28;20081;-83
2022/01/14 04:50:20;;;;;;;102.43;18.65;;;5.00;99.90;;;;;;5019189;28;20069;-83
2022/01/14 04:52:47;;;;;;;107.47;19.50;;;5.00;99.90;;;;;;5032728;28;20033;-83
2022/01/14 04:55:16;;;;;;;86.63;17.15;;;5.00;99.90;;;;;;5016378;28;20104;-83
2022/01/14 04:57:42;;;;;;;101.43;17.48;;;5.00;99.90;;;;;;5030475;28;20048;-83
2022/01/14 05:00:11;;;;;;;127.78;21.40;;;5.10;99.90;;;;;;5033672;28;20030;-83
2022/01/14 05:02:37;;;;;;;104.97;18.52;;;5.10;99.90;;;;;;5012067;28;20144;-83
2022/01/14 05:05:08;;;;;;;113.72;19.23;;;5.10;99.90;;;;;;5048228;28;20088;-83
2022/01/14 05:07:34;;;;;;;94.95;18.95;;;5.10;99.90;;;;;;5031020;28;20034;-83
2022/01/14 05:12:35;;;;;;;128.38;21.65;;;5.10;99.90;;;;;;5033496;28;20045;-83
2022/01/14 05:15:02;;;;;;;102.00;19.10;;;5.10;99.90;;;;;;5016363;28;20045;-83
2022/01/14 05:17:28;;;;;;;114.90;20.10;;;5.10;99.90;;;;;;5033234;28;20076;-83
2022/01/14 05:19:54;;;;;;;110.50;20.27;;;5.10;99.90;;;;;;5020380;28;20069;-83
2022/01/14 05:22:21;;;;;;;110.35;20.00;;;5.10;99.90;;;;;;5027434;28;20102;-83
2022/01/14 05:24:47;;;;;;;125.05;20.92;;;5.10;99.90;;;;;;5015783;28;20110;-82
2022/01/14 05:27:13;;;;;;;91.95;19.23;;;5.20;99.90;;;;;;5033775;28;20052;-83
2022/01/14 05:29:39;;;;;;;79.50;18.05;;;5.20;99.90;;;;;;5038328;28;20041;-83
2022/01/14 05:32:09;;;;;;;90.68;18.40;;;5.10;99.90;;;;;;5033318;28;20553;-82
2022/01/14 05:34:36;;;;;;;75.93;18.33;;;5.20;99.90;;;;;;5030794;28;20375;-82
2022/01/14 05:37:03;;;;;;;90.68;18.67;;;5.20;99.90;;;;;;5031571;28;20076;-82
2022/01/14 05:39:29;;;;;;;81.63;18.02;;;5.20;99.90;;;;;;5031926;28;20376;-83
2022/01/14 05:41:55;;;;;;;110.95;19.70;;;5.20;99.90;;;;;;5034788;28;20049;-83
2022/01/14 05:44:23;;;;;;;83.90;18.83;;;5.20;99.90;;;;;;5013148;28;20037;-83
2022/01/14 05:46:49;;;;;;;92.22;19.63;;;5.20;99.90;;;;;;5034278;28;20102;-83
2022/01/14 05:49:15;;;;;;;72.07;18.25;;;5.20;99.90;;;;;;5013054;28;20045;-83
2022/01/14 05:51:40;;;;;;;79.15;17.85;;;5.20;99.90;;;;;;5029217;28;20052;-82
2022/01/14 05:54:06;;;;;;;75.00;18.15;;;5.20;99.90;;;;;;5029660;28;20418;-83
2022/01/14 05:56:32;;;;;;;76.93;17.98;;;5.10;99.90;;;;;;5020786;28;20114;-83
2022/01/14 05:58:57;;;;;;;77.05;17.42;;;5.20;99.90;;;;;;5032231;28;20049;-83
2022/01/14 06:01:23;;;;;;;60.28;17.42;;;5.20;99.90;;;;;;5030691;28;20045;-82
2022/01/14 06:03:49;;;;;;;65.32;18.33;;;5.20;99.90;;;;;;5013855;28;20344;-83
2022/01/14 06:06:14;;;;;;;67.95;19.85;;;5.20;99.90;;;;;;5013150;28;20065;-83
2022/01/14 06:08:40;;;;;;;84.68;18.50;;;5.20;99.90;;;;;;5016724;28;20483;-82
2022/01/14 06:11:06;;;;;;;79.32;17.60;;;5.20;99.90;;;;;;5038390;28;20120;-82
2022/01/14 06:13:32;;;;;;;75.00;18.48;;;5.20;99.90;;;;;;5013987;28;20048;-83
2022/01/14 06:15:57;;;;;;;72.65;18.02;;;5.20;99.90;;;;;;5012006;28;20061;-82
2022/01/14 06:18:23;;;;;;;71.15;19.20;;;5.20;99.90;;;;;;5030558;28;20364;-83
2022/01/14 06:20:48;;;;;;;73.28;18.70;;;5.20;99.90;;;;;;5023505;28;20033;-82
2022/01/14 06:23:14;;;;;;;63.80;17.17;;;5.20;99.90;;;;;;5031578;28;20511;-82
2022/01/14 06:25:40;;;;;;;62.42;17.27;;;5.20;99.90;;;;;;5026796;28;20044;-83
2022/01/14 06:28:06;;;;;;;72.68;19.65;;;5.20;99.90;;;;;;5029983;28;20040;-82
2022/01/14 06:30:31;;;;;;;51.50;16.65;;;5.20;99.90;;;;;;5029159;28;20199;-82
2022/01/14 06:32:57;;;;;;;63.72;19.00;;;5.20;99.90;;;;;;5028512;28;20340;-82
2022/01/14 06:35:23;;;;;;;62.22;18.00;;;5.20;99.90;;;;;;5010833;28;20041;-83
2022/01/14 06:37:49;;;;;;;48.67;16.33;;;5.20;99.90;;;;;;5028634;28;20041;-82
2022/01/14 06:40:16;;;;;;;56.58;16.13;;;5.10;99.90;;;;;;5021617;28;20475;-83
2022/01/14 06:42:42;;;;;;;47.55;16.05;;;5.10;99.90;;;;;;5027195;28;20187;-82
2022/01/14 06:45:08;;;;;;;45.63;15.65;;;5.20;99.90;;;;;;5027562;28;20486;-82
2022/01/14 06:47:34;;;;;;;45.55;15.75;;;5.20;99.90;;;;;;5027332;28;20064;-82
2022/01/14 06:50:00;;;;;;;42.30;15.95;;;5.10;99.90;;;;;;5027664;28;20038;-82
2022/01/14 06:52:26;;;;;;;40.00;14.57;;;5.20;99.90;;;;;;5007679;28;20030;-82
2022/01/14 06:54:52;;;;;;;51.67;15.35;;;5.20;99.90;;;;;;5025194;28;20064;-82
2022/01/14 06:57:19;;;;;;;39.78;14.90;;;5.20;99.90;;;;;;5029678;28;20049;-82
2022/01/14 06:59:44;;;;;;;37.10;13.65;;;5.20;99.90;;;;;;5022948;28;20033;-82
2022/01/14 07:02:10;;;;;;;40.75;14.85;;;5.20;99.90;;;;;;5007991;28;20047;-82
2022/01/14 07:04:36;;;;;;;31.55;14.07;;;5.20;99.90;;;;;;5024878;28;20029;-83
2022/01/14 07:07:03;;;;;;;34.97;14.60;;;5.20;99.90;;;;;;5011953;28;20132;-83
2022/01/14 07:09:30;;;;;;;27.92;13.98;;;5.30;99.90;;;;;;5024182;28;20047;-83
2022/01/14 07:11:58;;;;;;;24.10;12.95;;;5.20;99.90;;;;;;5008525;28;20038;-84
2022/01/14 07:14:25;;;;;;;31.08;13.80;;;5.30;99.90;;;;;;5014094;28;20430;-83
2022/01/14 07:16:51;;;;;;;32.13;13.40;;;5.30;99.90;;;;;;5027172;28;20037;-83
2022/01/14 07:19:20;;;;;;;35.35;13.93;;;5.30;99.90;;;;;;5022062;28;20041;-83
2022/01/14 07:21:45;;;;;;;29.17;14.63;;;5.40;99.90;;;;;;5027997;28;20068;-84
2022/01/14 07:24:13;;;;;;;29.05;12.73;;;5.30;99.90;;;;;;5012576;28;20038;-84
2022/01/14 07:26:39;;;;;;;27.55;12.38;;;5.40;99.90;;;;;;5029336;28;20060;-84
2022/01/14 07:29:04;;;;;;;26.67;12.85;;;5.40;99.90;;;;;;5011432;28;20525;-83
2022/01/14 07:31:30;;;;;;;28.65;14.38;;;5.40;99.90;;;;;;5011317;28;20132;-83
2022/01/14 07:33:56;;;;;;;26.98;12.40;;;5.50;99.90;;;;;;5027578;28;20064;-84
2022/01/14 07:36:22;;;;;;;25.58;12.30;;;5.50;99.90;;;;;;5029416;28;20037;-84
2022/01/14 07:38:47;;;;;;;27.20;12.52;;;5.50;99.90;;;;;;5021026;28;20049;-84
2022/01/14 07:41:13;;;;;;;25.25;12.25;;;5.50;99.90;;;;;;5024878;28;20041;-84
2022/01/14 07:43:39;;;;;;;28.25;12.55;;;5.50;99.90;;;;;;5008826;28;20033;-84
2022/01/14 07:46:08;;;;;;;24.80;14.23;;;5.50;99.90;;;;;;5028096;28;20087;-83
2022/01/14 07:48:34;;;;;;;27.73;11.98;;;5.50;99.90;;;;;;5027835;28;20578;-83
2022/01/14 07:50:59;;;;;;;30.45;12.68;;;5.50;99.90;;;;;;5027016;28;20048;-83
2022/01/14 07:53:25;;;;;;;25.77;12.52;;;5.50;99.90;;;;;;5007179;28;20056;-83
2022/01/14 07:55:51;;;;;;;25.50;13.38;;;5.50;99.90;;;;;;5025349;28;20053;-84
2022/01/14 07:58:17;;;;;;;24.80;12.05;;;5.50;99.90;;;;;;5011556;28;20049;-84
2022/01/14 08:00:43;;;;;;;27.23;12.32;;;5.50;99.90;;;;;;5009638;28;20064;-83
2022/01/14 08:03:09;;;;;;;26.92;11.90;;;5.50;99.90;;;;;;5019754;28;20590;-84
2022/01/14 08:05:35;;;;;;;27.17;12.20;;;5.50;99.90;;;;;;5039957;28;20053;-84
2022/01/14 08:08:04;;;;;;;30.88;12.48;;;5.50;99.90;;;;;;5025378;28;20069;-84
2022/01/14 08:10:32;;;;;;;25.52;11.63;;;5.60;99.90;;;;;;5046190;28;20514;-84
2022/01/14 08:12:58;;;;;;;28.60;12.27;;;5.60;99.90;;;;;;5015180;28;20034;-83
2022/01/14 08:15:24;;;;;;;34.47;12.90;;;5.60;99.90;;;;;;5032467;28;20068;-84
2022/01/14 08:17:50;;;;;;;33.85;12.85;;;5.60;99.90;;;;;;5034216;28;20124;-84
2022/01/14 08:20:15;;;;;;;30.15;12.82;;;5.60;99.90;;;;;;5052907;28;20037;-84
2022/01/14 08:22:41;;;;;;;25.05;12.30;;;5.60;99.90;;;;;;5030788;28;20053;-84
2022/01/14 08:25:09;;;;;;;29.27;11.85;;;5.60;99.90;;;;;;5011016;28;20030;-84
2022/01/14 08:27:34;;;;;;;25.48;11.95;;;5.60;99.90;;;;;;5030765;28;20131;-84
2022/01/14 08:30:01;;;;;;;25.45;11.48;;;5.60;99.90;;;;;;5032007;28;20076;-84
2022/01/14 08:32:26;;;;;;;30.27;12.05;;;5.70;99.90;;;;;;5032194;28;20034;-84
2022/01/14 08:34:59;;;;;;;29.05;12.25;;;5.70;99.90;;;;;;5030654;28;20033;-84
2022/01/14 08:37:24;;;;;;;21.88;9.82;;;5.80;99.90;;;;;;5009339;28;20042;-84
2022/01/14 08:39:50;;;;;;;24.15;11.73;;;5.80;99.90;;;;;;5031300;28;20384;-84
2022/01/14 08:42:16;;;;;;;26.95;10.43;;;5.80;99.90;;;;;;5031744;28;20038;-84
2022/01/14 08:44:42;;;;;;;27.60;12.43;;;5.80;99.90;;;;;;5018340;28;20060;-83
2022/01/14 08:47:09;;;;;;;28.40;11.35;;;5.80;99.90;;;;;;5028699;28;20033;-83
2022/01/14 08:49:40;;;;;;;23.83;10.20;;;5.80;99.90;;;;;;5014120;28;20091;-84
2022/01/14 08:52:07;;;;;;;28.73;11.40;;;5.80;99.90;;;;;;5034022;28;20086;-83
2022/01/14 08:54:34;;;;;;;26.27;9.93;;;5.80;99.90;;;;;;5032799;28;20041;-83
2022/01/14 08:57:02;;;;;;;26.10;9.63;;;5.90;99.90;;;;;;5010701;28;20054;-83
2022/01/14 08:59:29;;;;;;;17.35;8.82;;;5.90;99.90;;;;;;5012984;28;20070;-82
2022/01/14 09:01:55;;;;;;;23.42;9.60;;;5.90;99.90;;;;;;4997225;28;20071;-83
2022/01/14 09:04:33;;;;;;;23.92;9.40;;;5.90;99.90;;;;;;4993579;28;20034;-83
2022/01/14 09:07:08;;;;;;;19.95;9.50;;;5.90;99.90;;;;;;4997255;28;20034;-83
2022/01/14 09:09:34;;;;;;;18.58;8.55;;;6.00;99.90;;;;;;5007499;28;20088;-82
2022/01/14 09:12:00;;;;;;;20.10;9.20;;;6.00;99.90;;;;;;5007438;28;20152;-83
2022/01/14 09:14:26;;;;;;;23.83;8.63;;;6.00;99.90;;;;;;4988653;28;20045;-83
2022/01/14 09:16:51;;;;;;;22.55;8.32;;;6.00;99.90;;;;;;4995586;28;20120;-83
2022/01/14 09:19:21;;;;;;;24.35;9.30;;;6.00;99.90;;;;;;5011003;28;20451;-83
2022/01/14 09:21:54;;;;;;;23.88;11.52;;;6.00;99.90;;;;;;4996119;28;20037;-83
2022/01/14 09:24:23;;;;;;;27.92;11.10;;;6.10;99.90;;;;;;5006175;28;20451;-83
2022/01/14 09:26:48;;;;;;;28.67;9.90;;;6.10;99.90;;;;;;5011826;28;20125;-83
2022/01/14 09:29:22;;;;;;;31.13;11.23;;;6.10;99.90;;;;;;5006508;28;20062;-83
2022/01/14 09:31:59;;;;;;;30.60;11.55;;;6.10;99.90;;;;;;4992031;28;20053;-83
2022/01/14 09:34:25;;;;;;;40.20;14.32;;;6.20;99.90;;;;;;5008934;28;20104;-83
2022/01/14 09:36:51;;;;;;;29.45;10.20;;;6.20;99.90;;;;;;5005472;28;20050;-83
2022/01/14 09:39:16;;;;;;;25.42;9.38;;;6.20;99.90;;;;;;5005655;28;20121;-83
2022/01/14 09:41:42;;;;;;;22.95;9.18;;;6.20;99.90;;;;;;5007157;28;20394;-83
2022/01/14 09:44:08;;;;;;;24.00;9.20;;;6.20;99.90;;;;;;4986495;28;20051;-83
2022/01/14 09:46:33;;;;;;;24.33;9.13;;;6.30;99.90;;;;;;5006805;28;20042;-83
2022/01/14 09:48:59;;;;;;;18.80;8.43;;;6.30;99.90;;;;;;5012748;28;20049;-83
2022/01/14 09:51:25;;;;;;;19.85;8.48;;;6.30;99.90;;;;;;5007371;28;20046;-83
2022/01/14 09:53:51;;;;;;;21.55;7.65;;;6.30;99.90;;;;;;5008724;28;20053;-83
2022/01/14 09:56:20;;;;;;;17.17;7.70;;;6.40;99.90;;;;;;5016692;28;20068;-83
2022/01/14 09:58:47;;;;;;;18.45;6.60;;;6.40;99.90;;;;;;5029648;28;20055;-83
2022/01/14 10:01:37;;;;;;;17.90;6.90;;;6.40;99.90;;;;;;5029501;28;20065;-83
2022/01/14 10:04:03;;;;;;;11.02;5.40;;;6.40;99.90;;;;;;5044926;28;20128;-83
2022/01/14 10:06:47;;;;;;;15.45;5.95;;;6.50;99.90;;;;;;5019020;28;20133;-83
2022/01/14 10:09:22;;;;;;;16.17;5.40;;;6.50;99.90;;;;;;5011214;28;20122;-83
2022/01/14 10:12:11;;;;;;;13.57;5.00;;;6.50;99.90;;;;;;5028500;28;20041;-83
2022/01/14 10:14:38;;;;;;;15.38;5.68;;;6.60;99.90;;;;;;5028201;28;20124;-83
2022/01/14 10:17:07;;;;;;;20.48;5.75;;;6.60;99.90;;;;;;5045415;28;20033;-83
2022/01/14 10:19:37;;;;;;;15.30;6.80;;;6.60;99.90;;;;;;5026572;28;20038;-84
2022/01/14 10:22:29;;;;;;;14.60;6.40;;;6.60;99.90;;;;;;5004559;28;20205;-84
2022/01/14 10:25:03;;;;;;;20.17;6.30;;;6.70;99.90;;;;;;5031696;28;20037;-83
2022/01/14 10:27:37;;;;;;;17.75;7.03;;;6.70;99.90;;;;;;5021413;28;20041;-83
2022/01/14 10:30:11;;;;;;;22.00;6.10;;;6.70;99.90;;;;;;5014523;28;20041;-83
2022/01/14 10:32:38;;;;;;;15.77;5.90;;;6.70;99.90;;;;;;5035163;28;20037;-83
2022/01/14 10:35:06;;;;;;;14.48;5.80;;;6.70;99.90;;;;;;5028600;28;20508;-83
2022/01/14 10:37:35;;;;;;;17.45;6.13;;;6.80;99.90;;;;;;5039321;28;20091;-83
2022/01/14 10:40:03;;;;;;;14.05;6.30;;;6.80;99.90;;;;;;5002883;28;20431;-83
2022/01/14 10:42:34;;;;;;;18.58;6.38;;;6.80;99.90;;;;;;5036969;28;20034;-83
2022/01/14 10:45:22;;;;;;;17.55;6.53;;;6.90;99.90;;;;;;5011788;28;20068;-83
2022/01/14 10:47:56;;;;;;;17.55;5.80;;;6.90;99.90;;;;;;5027733;28;20048;-83
2022/01/14 10:50:34;;;;;;;14.20;5.03;;;6.90;99.90;;;;;;5026343;28;20055;-83
2022/01/14 10:53:02;;;;;;;14.02;4.97;;;6.90;99.90;;;;;;5013528;28;20061;-83
2022/01/14 10:55:38;;;;;;;14.48;5.35;;;6.90;99.90;;;;;;5010830;28;20057;-83
2022/01/14 10:58:11;;;;;;;17.90;5.10;;;7.00;99.90;;;;;;5030351;28;20575;-83
2022/01/14 11:00:39;;;;;;;16.67;4.85;;;7.00;99.90;;;;;;5031256;28;20033;-83
2022/01/14 11:03:05;;;;;;;11.27;4.13;;;7.00;99.90;;;;;;5012833;28;20107;-83
2022/01/14 11:05:32;;;;;;;12.32;4.85;;;7.00;99.90;;;;;;5012018;28;20096;-84
2022/01/14 11:07:57;;;;;;;15.68;4.93;;;7.00;99.90;;;;;;5009386;28;20037;-83
2022/01/14 11:10:35;;;;;;;11.88;4.35;;;7.10;99.90;;;;;;5027616;28;20047;-84
2022/01/14 11:13:03;;;;;;;12.73;5.13;;;7.10;99.90;;;;;;5035681;28;20037;-84
2022/01/14 11:15:31;;;;;;;14.98;6.13;;;7.10;99.90;;;;;;5011486;28;20275;-83
2022/01/14 11:18:00;;;;;;;21.90;6.88;;;7.10;99.90;;;;;;5025722;28;20491;-83
2022/01/14 11:23:30;;;;;;;22.50;7.45;;;7.20;99.90;;;;;;5028871;28;20129;-83
2022/01/14 11:26:03;;;;;;;15.75;7.75;;;7.10;99.90;;;;;;5024597;28;20129;-83
2022/01/14 11:28:34;;;;;;;19.70;7.65;;;7.20;99.90;;;;;;5010433;28;20099;-83
2022/01/14 11:31:00;;;;;;;18.00;6.20;;;7.20;99.90;;;;;;5043514;28;20131;-84
2022/01/14 11:33:40;;;;;;;16.15;5.78;;;7.20;99.90;;;;;;5014508;28;20436;-84
2022/01/14 11:36:07;;;;;;;19.33;6.10;;;7.20;99.90;;;;;;5029130;28;20037;-82
2022/01/14 11:38:45;;;;;;;15.32;5.03;;;7.20;99.90;;;;;;5013315;28;20048;-83
2022/01/14 11:41:15;;;;;;;16.42;6.38;;;7.20;99.90;;;;;;5040405;28;20460;-83
2022/01/14 11:43:42;;;;;;;22.77;7.93;;;7.20;99.90;;;;;;5030897;28;20068;-83
2022/01/14 11:46:30;;;;;;;19.42;7.30;;;7.20;99.90;;;;;;5011906;28;20135;-83
2022/01/14 11:48:57;;;;;;;18.63;5.57;;;7.20;99.90;;;;;;5024557;28;20044;-84
2022/01/14 11:51:28;;;;;;;19.50;5.93;;;7.20;99.90;;;;;;5009921;28;20045;-83
2022/01/14 11:54:03;;;;;;;16.38;4.25;;;7.20;99.90;;;;;;5023732;28;20623;-83
2022/01/14 11:56:32;;;;;;;12.20;3.85;;;7.20;99.90;;;;;;5026052;28;20140;-83
2022/01/14 11:59:18;;;;;;;13.88;3.60;;;7.20;99.90;;;;;;5042383;28;20621;-83
2022/01/14 12:01:47;;;;;;;10.57;3.17;;;7.20;99.90;;;;;;5023349;28;20799;-83
2022/01/14 12:04:13;;;;;;;11.00;3.30;;;7.20;99.90;;;;;;5025137;28;20440;-83
2022/01/14 12:06:50;;;;;;;10.90;2.85;;;7.20;99.90;;;;;;5039719;28;20037;-83
2022/01/14 12:09:23;;;;;;;7.07;2.45;;;7.20;99.90;;;;;;5034712;28;20045;-83
2022/01/14 12:12:23;;;;;;;10.88;2.88;;;7.20;99.90;;;;;;5012003;28;20034;-83
2022/01/14 12:14:57;;;;;;;12.25;2.50;;;7.30;99.90;;;;;;5028690;28;20437;-83
2022/01/14 12:17:31;;;;;;;8.90;2.72;;;7.30;99.90;;;;;;5006706;28;20148;-83
2022/01/14 12:20:05;;;;;;;9.45;2.92;;;7.30;99.90;;;;;;5021697;28;20046;-83
2022/01/14 12:22:31;;;;;;;16.25;3.78;;;7.30;99.90;;;;;;5024798;28;20037;-83
2022/01/14 12:24:58;;;;;;;10.75;2.85;;;7.30;99.90;;;;;;5023357;28;20056;-83
2022/01/14 12:27:25;;;;;;;9.50;2.33;;;7.30;99.90;;;;;;5027617;28;20053;-83
2022/01/14 12:30:24;;;;;;;11.77;2.58;;;7.30;99.90;;;;;;5027081;28;20053;-84
2022/01/14 12:32:54;;;;;;;8.88;3.90;;;7.30;99.90;;;;;;4994946;28;20062;-83
2022/01/14 12:35:26;;;;;;;9.27;2.38;;;7.30;99.90;;;;;;5008998;28;20395;-83
2022/01/14 12:37:55;;;;;;;12.65;2.47;;;7.30;99.90;;;;;;5007353;28;20044;-83
2022/01/14 12:40:31;;;;;;;7.82;2.30;;;7.30;99.90;;;;;;5024560;28;20503;-83
2022/01/14 12:43:04;;;;;;;9.27;2.40;;;7.30;99.90;;;;;;5026889;28;20144;-83
2022/01/14 12:45:33;;;;;;;7.40;2.25;;;7.30;99.90;;;;;;5007007;28;20131;-83
2022/01/14 12:48:40;;;;;;;6.65;2.08;;;7.30;99.90;;;;;;5014385;28;20120;-83
2022/01/14 12:51:08;;;;;;;11.27;2.20;;;7.30;99.90;;;;;;5018246;28;20163;-83
2022/01/14 12:53:34;;;;;;;7.78;1.92;;;7.30;99.90;;;;;;5023978;28;20429;-83
2022/01/14 12:56:14;;;;;;;8.52;2.20;;;7.30;99.90;;;;;;5009187;28;20046;-83
2022/01/14 12:58:51;;;;;;;10.25;2.67;;;7.30;99.90;;;;;;5025928;28;20093;-83
2022/01/14 13:01:16;;;;;;;10.82;2.92;;;7.30;99.90;;;;;;5028869;28;20030;-83